Dalton, WI

2:42 PM CST on January 27, 2015 (GMT -0600)
APRSWXNET Cambria WI US | Change Station
CLOSE
Current Station
Personal Weather Station
Location: Cambria, WI
Elevation: 944 ft
Nearby Weather Stations

Elev 944 ft 43.54 °N, 89.11 °W | Updated 37 minutes ago

Overcast
Overcast
28 °F
Feels Like 28 °F
N
2
Wind Variable Wind from ENE
Gusts 1.0 mph

Today
High -- | Low -- °F
--% Chance of Precip.
Yesterday
High -- | Low -- °F
Precip. -- in
7:18 AM 5:00 PM
First Quarter, 57% visible
Pressure 30.25 in
Visibility 10.0 miles
Clouds Mostly Cloudy 2000 ft
Overcast 2800 ft
Windchill 28 °F
Dew Point 24 °F
Humidity 83%
Rainfall 0.02 in
Snow Depth Not available.
UV 1 out of 12
Pollen .10 out of 12
Air Quality Not available.
Flu Activity Not available.
METAR KY50 271956Z AUTO 10003KT 10SM BKN020 OVC028 M03/M07 A3021 RMK AO2 TSNO T10331072 SLP241

More Conditions Fewer Conditions

Pressure 30.25 in
Visibility 10.0 miles
Clouds Mostly Cloudy 2000 ft
Overcast 2800 ft
Windchill 28 °F
Dew Point 24 °F
Humidity 83%
Rainfall 0.02 in
Snow Depth Not available.
UV 1 out of 12
Pollen .10 out of 12
Air Quality Not available.
Flu Activity Not available.
METAR KY50 271956Z AUTO 10003KT 10SM BKN020 OVC028 M03/M07 A3021 RMK AO2 TSNO T10331072 SLP241

More Conditions Fewer Conditions

10-Day Weather Forecast

Almanac

Astronomy

Jan. 27, 2015 Rise Set
Actual Time
Civil Twilight
Nautical Twilight
Astronomical Twilight
Moon
Length of Visible Light
Length of Day
Tomorrow will be .
, % of the Moon is Illuminated

Today's Extremes

State Highs State Lows

Community

WunderPhotos

Upload Photos

1,790,900 photos uploaded!

WunderBlogs® & News

Nearby

Air Quality

  Air Quality AQ Index Pollutant
Not available.

Snow Depth

Station Depth Elevation

Earthquake Activity

City Distance Mag. Time & Date
Minimum magnitude displayed is 2.5.

Coastal Water Temperatures

Place Temperature

Nearby Weather Stations